Time;durP1;ratioP1;P1;durP2;ratioP2;P2;SDS_P1;SDS_P2;PMS_P1;PMS_P2;Temp;Humidity;BMP_temperature;BMP_pressure;BME280_temperature;BME280_humidity;BME280_pressure;Samples;Min_cycle;Max_cycle;Signal;HPM_P1;HPM_P2
2022/04/23 00:01:45;;;;;;;15.37;12.50;;;8.60;99.90;;;;;;5070438;28;20211;-54
2022/04/23 00:04:11;;;;;;;17.47;13.40;;;8.50;99.90;;;;;;5071146;28;20221;-53
2022/04/23 00:06:37;;;;;;;15.63;13.20;;;8.50;99.90;;;;;;5070576;28;20276;-53
2022/04/23 00:09:03;;;;;;;14.60;12.63;;;8.40;99.90;;;;;;5072446;28;20471;-53
2022/04/23 00:11:29;;;;;;;15.47;13.20;;;8.30;99.90;;;;;;5070951;28;20436;-53
2022/04/23 00:13:56;;;;;;;15.33;13.60;;;8.30;99.90;;;;;;5071196;28;20427;-52
2022/04/23 00:16:25;;;;;;;16.70;13.70;;;8.20;99.90;;;;;;5085976;28;20208;-54
2022/04/23 00:18:51;;;;;;;16.13;13.00;;;8.10;99.90;;;;;;5069226;28;20930;-52
2022/04/23 00:21:18;;;;;;;15.43;12.97;;;8.00;99.90;;;;;;5068441;28;20447;-53
2022/04/23 00:23:45;;;;;;;14.17;12.63;;;8.00;99.90;;;;;;5071224;28;20216;-53
2022/04/23 00:26:10;;;;;;;14.70;12.80;;;7.90;99.90;;;;;;5071818;28;20506;-52
2022/04/23 00:28:36;;;;;;;15.80;12.37;;;7.80;99.90;;;;;;5070746;28;20505;-53
2022/04/23 00:31:01;;;;;;;18.07;13.60;;;7.70;99.90;;;;;;5068679;28;20287;-55
2022/04/23 00:33:27;;;;;;;16.97;14.27;;;7.70;99.90;;;;;;5068318;28;20651;-52
2022/04/23 00:35:52;;;;;;;16.13;13.17;;;7.60;99.90;;;;;;5071856;28;20698;-52
2022/04/23 00:38:18;;;;;;;17.33;13.57;;;7.60;99.90;;;;;;5072220;28;20193;-51
2022/04/23 00:40:44;;;;;;;15.93;12.80;;;7.50;99.90;;;;;;5071562;28;20224;-55
2022/04/23 00:43:28;;;;;;;17.37;14.17;;;7.50;99.90;;;;;;5072027;28;20197;-53
2022/04/23 00:45:56;;;;;;;15.00;12.67;;;7.40;99.90;;;;;;5069676;28;20806;-53
2022/04/23 00:48:21;;;;;;;17.30;13.90;;;7.30;99.90;;;;;;5069827;28;20510;-52
2022/04/23 00:50:52;;;;;;;14.57;13.03;;;7.20;99.90;;;;;;5069113;28;20530;-52
2022/04/23 00:53:19;;;;;;;16.80;12.87;;;7.10;99.90;;;;;;5068949;28;21361;-51
2022/04/23 00:55:46;;;;;;;16.53;12.67;;;7.10;99.90;;;;;;5069288;28;20861;-54
2022/04/23 00:58:13;;;;;;;15.60;13.17;;;7.00;99.90;;;;;;5069979;28;20424;-51
2022/04/23 01:00:40;;;;;;;17.33;14.20;;;6.90;99.90;;;;;;5063708;28;20554;-51
2022/04/23 01:03:06;;;;;;;15.07;12.83;;;6.90;99.90;;;;;;5067354;28;20450;-51
2022/04/23 01:05:32;;;;;;;16.80;13.20;;;6.80;99.90;;;;;;5067057;28;20471;-55
2022/04/23 01:08:02;;;;;;;18.00;13.73;;;6.70;99.90;;;;;;5069821;28;20428;-55
2022/04/23 01:10:28;;;;;;;18.70;14.23;;;6.60;99.90;;;;;;5067041;28;20185;-53
2022/04/23 01:12:54;;;;;;;16.40;14.23;;;6.60;99.90;;;;;;5068427;28;20224;-55
2022/04/23 01:15:21;;;;;;;19.20;14.30;;;6.60;99.90;;;;;;5066935;28;20443;-53
2022/04/23 01:17:47;;;;;;;17.53;14.00;;;6.50;99.90;;;;;;5067499;28;20178;-55
2022/04/23 01:20:14;;;;;;;18.40;14.48;;;6.40;99.90;;;;;;5069687;28;20507;-56
2022/04/23 01:22:42;;;;;;;17.20;12.95;;;6.40;99.90;;;;;;5067557;28;20201;-55
2022/04/23 01:25:13;;;;;;;17.77;13.02;;;6.30;99.90;;;;;;5068865;28;20241;-51
2022/04/23 01:27:40;;;;;;;19.20;14.68;;;6.30;99.90;;;;;;5066306;28;20608;-56
2022/04/23 01:30:07;;;;;;;19.23;14.25;;;6.20;99.90;;;;;;5065171;28;20196;-55
2022/04/23 01:32:34;;;;;;;17.05;13.95;;;6.20;99.90;;;;;;5067671;28;20288;-55
2022/04/23 01:34:59;;;;;;;17.27;14.15;;;6.20;99.90;;;;;;5068031;28;20239;-53
2022/04/23 01:37:25;;;;;;;18.60;15.00;;;6.20;99.90;;;;;;5066541;28;20190;-51
2022/04/23 01:39:51;;;;;;;17.93;14.70;;;6.10;99.90;;;;;;5069584;28;20191;-53
2022/04/23 01:42:19;;;;;;;20.90;15.67;;;6.10;99.90;;;;;;5066375;28;20189;-51
2022/04/23 01:44:51;;;;;;;18.10;14.60;;;6.10;99.90;;;;;;5062063;28;20209;-54
2022/04/23 01:47:17;;;;;;;21.20;15.23;;;6.00;99.90;;;;;;5067531;28;20180;-54
2022/04/23 01:49:46;;;;;;;18.52;14.38;;;6.10;99.90;;;;;;5068356;28;20588;-55
2022/04/23 01:52:13;;;;;;;19.05;14.70;;;6.00;99.90;;;;;;5068038;28;20182;-50
2022/04/23 01:54:39;;;;;;;17.05;14.75;;;6.00;99.90;;;;;;5068535;28;20257;-55
2022/04/23 01:57:05;;;;;;;18.08;15.27;;;6.00;99.90;;;;;;5065104;28;20193;-56
2022/04/23 01:59:31;;;;;;;16.10;13.40;;;6.00;99.90;;;;;;5069292;28;20197;-51
2022/04/23 02:01:57;;;;;;;17.93;14.00;;;5.90;99.90;;;;;;5067777;28;20451;-53
2022/04/23 02:04:23;;;;;;;20.13;15.52;;;5.90;99.90;;;;;;5067550;28;21328;-51
2022/04/23 02:06:48;;;;;;;17.50;14.27;;;5.80;99.90;;;;;;5068447;28;20178;-53
2022/04/23 02:09:14;;;;;;;18.13;14.37;;;5.80;99.90;;;;;;5068278;28;20647;-54
2022/04/23 02:11:40;;;;;;;19.03;15.80;;;5.80;99.90;;;;;;5069386;28;20424;-53
2022/04/23 02:14:06;;;;;;;20.23;15.27;;;5.70;99.90;;;;;;5065389;28;20231;-53
2022/04/23 02:16:32;;;;;;;19.65;15.27;;;5.70;99.90;;;;;;5067883;28;20177;-53
2022/04/23 02:18:58;;;;;;;18.80;14.80;;;5.70;99.90;;;;;;5064593;28;20193;-53
2022/04/23 02:21:24;;;;;;;21.00;15.57;;;5.70;99.90;;;;;;5068805;28;20185;-53
2022/04/23 02:23:52;;;;;;;19.45;14.05;;;5.60;99.90;;;;;;5065232;28;20479;-53
2022/04/23 02:26:17;;;;;;;22.05;15.90;;;5.60;99.90;;;;;;5055695;28;20202;-55
2022/04/23 02:28:43;;;;;;;18.60;14.50;;;5.60;99.90;;;;;;5066995;28;20642;-53
2022/04/23 02:31:09;;;;;;;18.10;14.43;;;5.60;99.90;;;;;;5066391;28;20193;-53
2022/04/23 02:33:34;;;;;;;18.47;14.37;;;5.60;99.90;;;;;;5068142;28;20185;-51
2022/04/23 02:36:00;;;;;;;19.00;14.80;;;5.50;99.90;;;;;;5067428;28;20656;-57
2022/04/23 02:38:25;;;;;;;18.77;14.53;;;5.50;99.90;;;;;;5064564;28;20447;-55
2022/04/23 02:40:51;;;;;;;18.10;14.27;;;5.50;99.90;;;;;;5068877;28;20189;-54
2022/04/23 02:43:17;;;;;;;17.63;15.13;;;5.40;99.90;;;;;;5067342;28;20220;-52
2022/04/23 02:45:42;;;;;;;17.73;14.37;;;5.40;99.90;;;;;;5067545;28;20201;-54
2022/04/23 02:48:11;;;;;;;19.30;15.27;;;5.40;99.90;;;;;;5068744;28;20227;-49
2022/04/23 02:50:38;;;;;;;20.02;14.93;;;5.40;99.90;;;;;;5068936;28;20936;-56
2022/04/23 02:53:08;;;;;;;20.02;15.30;;;5.40;99.90;;;;;;5066194;28;20238;-53
2022/04/23 02:55:35;;;;;;;19.10;14.73;;;5.40;99.90;;;;;;5059475;28;20648;-52
2022/04/23 02:58:02;;;;;;;19.42;15.43;;;5.30;99.90;;;;;;5070023;28;20190;-53
2022/04/23 03:00:28;;;;;;;18.25;14.95;;;5.30;99.90;;;;;;5072482;28;20260;-54
2022/04/23 03:02:54;;;;;;;19.77;14.13;;;5.30;99.90;;;;;;5067111;28;20589;-55
2022/04/23 03:05:20;;;;;;;20.23;15.00;;;5.40;99.90;;;;;;5071374;28;20525;-54
2022/04/23 03:07:47;;;;;;;18.90;15.27;;;5.40;99.90;;;;;;5070496;28;20186;-56
2022/04/23 03:10:13;;;;;;;18.63;14.18;;;5.40;99.90;;;;;;5071020;28;21157;-53
2022/04/23 03:12:39;;;;;;;17.85;15.00;;;5.40;99.90;;;;;;5072116;28;20181;-54
2022/04/23 03:15:07;;;;;;;17.77;14.50;;;5.40;99.90;;;;;;5069304;28;20523;-49
2022/04/23 03:17:33;;;;;;;18.80;14.65;;;5.40;99.90;;;;;;5070420;28;20201;-56
2022/04/23 03:19:58;;;;;;;18.13;14.80;;;5.40;99.90;;;;;;5070039;28;20193;-53
2022/04/23 03:22:24;;;;;;;18.00;14.23;;;5.50;99.90;;;;;;5071812;28;20765;-56
2022/04/23 03:24:49;;;;;;;19.83;14.87;;;5.40;99.90;;;;;;5067618;28;20681;-52
2022/04/23 03:27:15;;;;;;;17.33;13.90;;;5.50;99.90;;;;;;5071829;28;20186;-55
2022/04/23 03:29:41;;;;;;;18.95;14.93;;;5.50;99.90;;;;;;5069205;28;20692;-51
2022/04/23 03:32:07;;;;;;;18.90;14.63;;;5.50;99.90;;;;;;5072246;28;20185;-54
2022/04/23 03:34:33;;;;;;;18.53;14.20;;;5.50;99.90;;;;;;5070097;28;20277;-54
2022/04/23 03:36:58;;;;;;;16.53;13.80;;;5.50;99.90;;;;;;5070601;28;20436;-55
2022/04/23 03:39:24;;;;;;;21.90;15.60;;;5.50;99.90;;;;;;5070551;28;20193;-53
2022/04/23 03:41:50;;;;;;;16.40;13.70;;;5.50;99.90;;;;;;5068210;28;20178;-53
2022/04/23 03:44:16;;;;;;;17.07;13.87;;;5.50;99.90;;;;;;5064934;28;20186;-56
2022/04/23 03:46:41;;;;;;;18.37;14.67;;;5.50;99.90;;;;;;5069692;28;20465;-52
2022/04/23 03:49:09;;;;;;;17.57;14.20;;;5.50;99.90;;;;;;5069124;28;20447;-53
2022/04/23 03:51:35;;;;;;;18.27;14.60;;;5.50;99.90;;;;;;5070731;28;20266;-54
2022/04/23 03:54:01;;;;;;;21.07;15.10;;;5.40;99.90;;;;;;5069552;28;20217;-53
2022/04/23 03:56:27;;;;;;;16.00;13.02;;;5.40;99.90;;;;;;5071598;28;20181;-50
2022/04/23 03:58:53;;;;;;;19.40;14.60;;;5.40;99.90;;;;;;5069916;28;20187;-54
2022/04/23 04:01:18;;;;;;;16.70;14.60;;;5.40;99.90;;;;;;5070901;28;20779;-54
2022/04/23 04:03:44;;;;;;;19.80;14.03;;;5.40;99.90;;;;;;5067828;28;20437;-55
2022/04/23 04:06:10;;;;;;;18.00;14.03;;;5.40;99.90;;;;;;5070967;28;20235;-54
2022/04/23 04:08:35;;;;;;;20.23;15.87;;;5.30;99.90;;;;;;5068441;28;20190;-52
2022/04/23 04:11:01;;;;;;;19.00;15.77;;;5.30;99.90;;;;;;5069640;28;20435;-49
2022/04/23 04:13:27;;;;;;;16.07;14.37;;;5.40;99.90;;;;;;5070377;28;20182;-54
2022/04/23 04:15:52;;;;;;;21.10;16.07;;;5.30;99.90;;;;;;5068968;28;20201;-53
2022/04/23 04:18:19;;;;;;;18.13;15.37;;;5.30;99.90;;;;;;5068949;28;20227;-53
2022/04/23 04:20:48;;;;;;;20.17;15.88;;;5.20;99.90;;;;;;5067806;28;20869;-53
2022/04/23 04:23:14;;;;;;;20.92;15.52;;;5.20;99.90;;;;;;5067985;28;20188;-53
2022/04/23 04:25:40;;;;;;;19.98;16.55;;;5.10;99.90;;;;;;5069191;28;20197;-53
2022/04/23 04:28:07;;;;;;;23.17;16.30;;;5.10;99.90;;;;;;5070762;28;20192;-48
2022/04/23 04:31:47;;;;;;;21.95;16.55;;;5.10;99.90;;;;;;5066745;28;20443;-55
2022/04/23 04:33:19;;;;;;;24.20;16.83;;;5.10;99.90;;;;;;5064452;28;20193;-55
2022/04/23 04:35:44;;;;;;;21.63;15.70;;;5.10;99.90;;;;;;5067994;28;20401;-52
2022/04/23 04:38:10;;;;;;;22.53;17.40;;;5.10;99.90;;;;;;5070303;28;20416;-52
2022/04/23 04:40:35;;;;;;;21.93;17.30;;;5.10;99.90;;;;;;5069027;28;20185;-53
2022/04/23 04:43:01;;;;;;;20.43;16.87;;;5.00;99.90;;;;;;5070419;28;20216;-55
2022/04/23 04:45:26;;;;;;;23.97;18.50;;;5.10;99.90;;;;;;5067753;28;20289;-55
2022/04/23 04:47:52;;;;;;;20.40;15.70;;;5.10;99.90;;;;;;5069954;28;20191;-47
2022/04/23 04:50:17;;;;;;;24.87;18.10;;;5.10;99.90;;;;;;5067816;28;20500;-51
2022/04/23 04:52:43;;;;;;;22.80;17.90;;;5.10;99.90;;;;;;5067973;28;20185;-56
2022/04/23 04:55:09;;;;;;;24.97;18.90;;;5.10;99.90;;;;;;5068074;28;20229;-54
2022/04/23 04:57:35;;;;;;;26.08;19.55;;;5.10;99.90;;;;;;5069954;28;20193;-55
2022/04/23 05:00:00;;;;;;;26.73;19.60;;;5.10;99.90;;;;;;5067709;28;20659;-54
2022/04/23 05:02:26;;;;;;;30.63;21.70;;;5.20;99.90;;;;;;5068882;28;20205;-55
2022/04/23 05:04:51;;;;;;;29.90;22.03;;;5.30;99.90;;;;;;5066794;28;20663;-55
2022/04/23 05:07:17;;;;;;;27.13;20.50;;;5.40;99.90;;;;;;5069730;28;20178;-53
2022/04/23 05:09:42;;;;;;;29.00;21.20;;;5.40;99.90;;;;;;5068792;28;20691;-52
2022/04/23 05:12:09;;;;;;;30.03;21.50;;;5.50;99.90;;;;;;5069289;28;20189;-54
2022/04/23 05:14:34;;;;;;;28.92;21.60;;;5.50;99.90;;;;;;5066746;28;20212;-54
2022/04/23 05:17:00;;;;;;;27.83;21.30;;;5.60;99.90;;;;;;5068811;28;20218;-53
2022/04/23 05:19:25;;;;;;;27.93;21.37;;;5.70;99.90;;;;;;5067430;28;20178;-52
2022/04/23 05:21:51;;;;;;;27.03;19.90;;;5.80;99.90;;;;;;5069209;28;20268;-49
2022/04/23 05:24:16;;;;;;;25.27;19.17;;;5.80;99.90;;;;;;5067763;28;20268;-53
2022/04/23 05:26:42;;;;;;;25.40;19.73;;;5.90;99.90;;;;;;5068704;28;20207;-56
2022/04/23 05:29:07;;;;;;;26.97;20.37;;;6.00;99.90;;;;;;5063431;28;20186;-52
2022/04/23 05:31:33;;;;;;;25.57;20.60;;;6.00;99.90;;;;;;5067141;28;20178;-55
2022/04/23 05:33:59;;;;;;;24.90;19.47;;;6.10;99.90;;;;;;5067034;28;20196;-53
2022/04/23 05:36:24;;;;;;;24.23;19.02;;;6.20;99.90;;;;;;5068070;28;20711;-56
2022/04/23 05:38:50;;;;;;;26.33;18.40;;;6.30;99.90;;;;;;5066653;28;20264;-54
2022/04/23 05:41:15;;;;;;;23.50;18.37;;;6.50;99.90;;;;;;5067218;28;20192;-51
2022/04/23 05:43:41;;;;;;;21.57;17.87;;;6.50;99.90;;;;;;5064729;28;20214;-52
2022/04/23 05:46:07;;;;;;;23.60;17.73;;;6.60;99.90;;;;;;5061705;28;20205;-52
2022/04/23 05:48:35;;;;;;;23.07;18.67;;;6.70;99.90;;;;;;5066945;28;20182;-50
2022/04/23 05:51:01;;;;;;;23.67;17.65;;;6.80;99.90;;;;;;5063346;28;20957;-49
2022/04/23 05:53:26;;;;;;;20.57;16.67;;;6.90;99.90;;;;;;5074001;28;20296;-50
2022/04/23 05:55:55;;;;;;;19.70;15.33;;;6.90;99.90;;;;;;5068205;28;20863;-53
2022/04/23 05:58:20;;;;;;;20.53;16.67;;;7.00;99.90;;;;;;5068891;28;20189;-52
2022/04/23 06:00:46;;;;;;;20.30;15.73;;;7.00;99.90;;;;;;5064065;28;20442;-53
2022/04/23 06:03:12;;;;;;;17.07;14.33;;;7.10;99.90;;;;;;5051271;28;20264;-54
2022/04/23 06:05:39;;;;;;;17.43;15.20;;;7.20;99.90;;;;;;5058287;28;20212;-52
2022/04/23 06:08:05;;;;;;;15.67;13.80;;;7.30;99.90;;;;;;5060600;28;20412;-54
2022/04/23 06:10:30;;;;;;;16.17;14.47;;;7.40;99.90;;;;;;5057338;28;20493;-52
2022/04/23 06:12:56;;;;;;;17.03;14.33;;;7.50;99.90;;;;;;5057475;28;20265;-54
2022/04/23 06:15:21;;;;;;;17.43;13.63;;;7.60;99.90;;;;;;5057676;28;20196;-52
2022/04/23 06:17:47;;;;;;;16.40;13.63;;;7.60;99.90;;;;;;5058690;28;20561;-54
2022/04/23 06:20:12;;;;;;;17.50;14.90;;;7.80;99.90;;;;;;5055305;28;20773;-54
2022/04/23 06:22:38;;;;;;;17.33;14.60;;;7.90;99.90;;;;;;5059053;28;20190;-50
2022/04/23 06:25:05;;;;;;;15.50;13.40;;;7.90;99.90;;;;;;5059106;28;20248;-54
2022/04/23 06:27:31;;;;;;;16.67;14.13;;;8.00;99.90;;;;;;5059759;28;20209;-53
2022/04/23 06:29:58;;;;;;;15.00;13.27;;;8.10;99.90;;;;;;5054309;28;20550;-52
2022/04/23 06:32:23;;;;;;;17.00;15.03;;;8.20;99.90;;;;;;5062335;28;20652;-52
2022/04/23 06:34:49;;;;;;;15.27;13.03;;;8.20;99.90;;;;;;5063329;28;20500;-52
2022/04/23 06:37:18;;;;;;;14.77;13.23;;;8.20;99.90;;;;;;5060544;28;20236;-54
2022/04/23 06:39:44;;;;;;;16.47;14.30;;;8.30;99.90;;;;;;5063098;28;20439;-53
2022/04/23 06:42:09;;;;;;;15.27;13.67;;;8.50;99.90;;;;;;5063408;28;20431;-52
2022/04/23 06:44:35;;;;;;;14.20;12.20;;;8.50;99.90;;;;;;5061139;28;20665;-49
2022/04/23 06:47:01;;;;;;;14.40;12.70;;;8.60;99.90;;;;;;5062821;28;20182;-54
2022/04/23 06:49:27;;;;;;;15.30;13.20;;;8.80;99.90;;;;;;5061801;28;20210;-55
2022/04/23 06:51:56;;;;;;;14.47;13.00;;;8.90;99.90;;;;;;5063368;28;21090;-50
2022/04/23 06:54:24;;;;;;;13.17;11.77;;;8.90;99.90;;;;;;5057984;28;20525;-52
2022/04/23 06:56:50;;;;;;;13.00;11.70;;;9.10;99.90;;;;;;5058627;28;20428;-52
2022/04/23 06:59:16;;;;;;;14.33;11.80;;;9.20;99.90;;;;;;5060753;28;20446;-53
2022/04/23 07:01:41;;;;;;;14.37;12.57;;;9.20;99.90;;;;;;5062064;28;20239;-51
2022/04/23 07:04:10;;;;;;;12.67;11.10;;;9.20;99.90;;;;;;5063167;28;20235;-54
2022/04/23 07:06:36;;;;;;;12.87;10.97;;;9.30;99.90;;;;;;5063553;28;20217;-50
2022/04/23 07:09:02;;;;;;;12.60;11.40;;;9.40;99.90;;;;;;5062281;28;20978;-52
2022/04/23 07:11:28;;;;;;;9.80;8.90;;;9.50;99.90;;;;;;5062744;28;20792;-53
2022/04/23 07:13:53;;;;;;;9.70;8.80;;;9.60;99.90;;;;;;5060670;28;20439;-54
2022/04/23 07:16:19;;;;;;;10.63;9.53;;;9.80;99.90;;;;;;5062918;28;20426;-51
2022/04/23 07:18:44;;;;;;;9.60;8.70;;;9.90;99.90;;;;;;5062334;28;20186;-51
2022/04/23 07:21:10;;;;;;;9.93;9.03;;;10.10;98.60;;;;;;5062831;28;21227;-50
2022/04/23 07:26:20;;;;;;;8.20;7.50;;;10.30;95.30;;;;;;5062202;28;20693;-54
2022/04/23 07:28:45;;;;;;;8.03;7.33;;;10.40;93.60;;;;;;5061522;28;20424;-53
2022/04/23 07:31:11;;;;;;;8.70;7.93;;;10.50;94.10;;;;;;5062912;28;20656;-53
2022/04/23 07:39:05;;;;;;;8.40;7.70;;;10.80;91.10;;;;;;5059877;28;20490;-52
2022/04/23 07:41:31;;;;;;;7.60;6.90;;;11.00;90.60;;;;;;5058639;28;20435;-53
2022/04/23 07:43:56;;;;;;;7.37;6.67;;;11.10;88.90;;;;;;5059747;28;20189;-56
2022/04/23 07:46:22;;;;;;;6.87;6.27;;;11.30;90.10;;;;;;5056993;28;20225;-54
2022/04/23 07:48:48;;;;;;;7.50;6.90;;;11.50;87.30;;;;;;5059280;28;20185;-54
2022/04/23 07:51:13;;;;;;;7.10;6.50;;;11.70;84.20;;;;;;5061674;28;20190;-49
2022/04/23 07:53:39;;;;;;;6.70;6.20;;;11.80;82.40;;;;;;5061960;28;20217;-51
2022/04/23 07:56:05;;;;;;;7.00;6.30;;;12.00;82.50;;;;;;5056789;28;21097;-52
2022/04/23 07:58:30;;;;;;;7.30;6.50;;;12.20;77.60;;;;;;5048769;28;20200;-53
2022/04/23 08:00:56;;;;;;;6.73;6.23;;;12.30;76.20;;;;;;5059615;28;20448;-53
2022/04/23 08:03:22;;;;;;;6.50;6.00;;;12.40;75.70;;;;;;5057180;28;20217;-52
2022/04/23 08:05:47;;;;;;;6.63;6.03;;;12.50;75.10;;;;;;5057162;28;20248;-51
2022/04/23 08:08:15;;;;;;;6.87;6.27;;;12.70;74.50;;;;;;5058774;28;20235;-50
2022/04/23 08:10:41;;;;;;;5.70;5.30;;;12.90;73.80;;;;;;5056201;28;20181;-53
2022/04/23 08:13:06;;;;;;;6.30;5.70;;;13.00;70.20;;;;;;5057693;28;20440;-49
2022/04/23 08:15:33;;;;;;;6.90;6.40;;;13.20;69.30;;;;;;5060179;28;20279;-49
2022/04/23 08:18:00;;;;;;;6.93;6.33;;;13.40;67.50;;;;;;5058661;28;20181;-50
2022/04/23 08:20:26;;;;;;;5.50;5.10;;;13.50;64.50;;;;;;5058066;28;21390;-54
2022/04/23 08:22:52;;;;;;;6.10;5.57;;;13.60;64.20;;;;;;5059990;28;20447;-50
2022/04/23 08:25:17;;;;;;;5.67;5.33;;;13.80;64.30;;;;;;5057740;28;20287;-54
2022/04/23 08:27:48;;;;;;;6.23;5.83;;;14.00;62.90;;;;;;5058546;28;20193;-53
2022/04/23 08:32:58;;;;;;;6.67;6.17;;;14.40;62.30;;;;;;5060149;28;20466;-53
2022/04/23 08:35:23;;;;;;;5.90;5.40;;;14.60;57.20;;;;;;5061522;28;20518;-52
2022/04/23 08:37:50;;;;;;;6.50;6.00;;;14.80;56.70;;;;;;5058477;28;20196;-53
2022/04/23 08:40:16;;;;;;;6.30;5.67;;;14.70;52.40;;;;;;5060652;28;20561;-56
2022/04/23 08:42:41;;;;;;;6.40;5.90;;;15.00;52.10;;;;;;5058104;28;20436;-51
2022/04/23 08:45:08;;;;;;;6.30;5.80;;;15.30;53.60;;;;;;5060055;28;20249;-49
2022/04/23 08:47:36;;;;;;;6.43;5.90;;;15.70;55.60;;;;;;5059788;28;20273;-51
2022/04/23 08:50:05;;;;;;;6.83;6.33;;;16.00;51.70;;;;;;5056982;28;21003;-53
2022/04/23 08:52:32;;;;;;;6.93;6.43;;;16.30;49.50;;;;;;5059424;28;20440;-51
2022/04/23 08:54:59;;;;;;;6.40;6.00;;;16.60;50.70;;;;;;5059293;28;20520;-52
2022/04/23 08:57:24;;;;;;;6.93;6.33;;;17.10;50.10;;;;;;5050281;28;20454;-52
2022/04/23 08:59:53;;;;;;;7.30;6.83;;;17.60;47.70;;;;;;5057634;28;20800;-53
2022/04/23 09:02:19;;;;;;;6.80;6.20;;;18.30;47.60;;;;;;5055205;28;20286;-54
2022/04/23 09:04:44;;;;;;;6.30;5.90;;;18.60;43.60;;;;;;5056462;28;20462;-54
2022/04/23 09:07:18;;;;;;;6.63;6.13;;;19.30;42.30;;;;;;5058138;28;20221;-50
2022/04/23 09:09:51;;;;;;;6.00;5.60;;;19.90;43.00;;;;;;5059536;28;20240;-52
2022/04/23 09:12:17;;;;;;;6.37;5.97;;;20.10;38.10;;;;;;5056124;28;20444;-53
2022/04/23 09:14:46;;;;;;;6.07;5.67;;;20.40;39.60;;;;;;5040935;28;20429;-52
2022/04/23 09:25:43;;;;;;;6.13;5.73;;;22.60;33.10;;;;;;5055481;28;20612;-51
2022/04/23 09:28:29;;;;;;;6.70;6.30;;;22.90;29.10;;;;;;5058257;28;21310;-58
2022/04/23 09:30:56;;;;;;;6.10;5.70;;;23.10;29.80;;;;;;5057691;28;20443;-55
2022/04/23 09:33:29;;;;;;;6.33;5.93;;;23.20;27.30;;;;;;5059289;28;20779;-52
2022/04/23 09:36:03;;;;;;;6.37;5.97;;;23.20;29.40;;;;;;5070875;28;21616;-58
2022/04/23 09:38:30;;;;;;;7.00;6.60;;;23.60;28.90;;;;;;5059061;28;20434;-54
2022/04/23 09:40:58;;;;;;;6.07;5.67;;;23.60;29.20;;;;;;5056836;28;20436;-58
2022/04/23 09:43:25;;;;;;;6.07;5.77;;;24.10;28.20;;;;;;5053897;28;20441;-56
2022/04/23 09:46:06;;;;;;;6.57;6.17;;;24.30;25.70;;;;;;5057061;28;20462;-53
2022/04/23 09:48:31;;;;;;;6.60;6.20;;;24.80;27.20;;;;;;5054901;28;20516;-59
2022/04/23 09:50:58;;;;;;;7.07;6.67;;;24.80;26.20;;;;;;5060484;28;20525;-55
2022/04/23 09:53:27;;;;;;;6.50;6.10;;;24.80;25.10;;;;;;5058990;28;20531;-57
2022/04/23 09:56:04;;;;;;;6.50;6.10;;;24.90;26.60;;;;;;5055954;28;20518;-54
2022/04/23 09:58:31;;;;;;;6.27;5.87;;;24.90;25.80;;;;;;5059396;28;20449;-56
2022/04/23 10:00:57;;;;;;;6.50;6.10;;;25.70;26.10;;;;;;5059415;28;20445;-54
2022/04/23 10:03:29;;;;;;;6.30;6.00;;;25.20;23.30;;;;;;5058649;28;20442;-57
2022/04/23 10:05:55;;;;;;;6.13;5.83;;;25.10;25.10;;;;;;5055800;28;20597;-56
2022/04/23 10:08:26;;;;;;;6.40;6.00;;;25.20;22.90;;;;;;5058585;28;20439;-56
2022/04/23 10:11:13;;;;;;;6.60;6.20;;;24.90;23.20;;;;;;5058932;28;20231;-57
2022/04/23 10:13:41;;;;;;;6.77;6.37;;;24.90;23.80;;;;;;5056543;28;20428;-56
2022/04/23 10:16:07;;;;;;;6.40;6.00;;;24.70;23.50;;;;;;5075115;28;20522;-57
2022/04/23 10:18:38;;;;;;;6.57;6.17;;;24.50;23.40;;;;;;5059116;28;20809;-56
2022/04/23 10:21:08;;;;;;;6.50;6.10;;;24.70;25.50;;;;;;5058826;28;20211;-55
2022/04/23 10:23:59;;;;;;;6.20;5.90;;;25.40;26.40;;;;;;5060698;28;20441;-54
2022/04/23 10:26:51;;;;;;;8.10;7.60;;;26.10;25.00;;;;;;5059411;28;20549;-54
2022/04/23 10:29:21;;;;;;;6.53;6.13;;;26.60;24.50;;;;;;5058467;28;20511;-53
2022/04/23 10:32:09;;;;;;;6.70;6.20;;;26.70;23.30;;;;;;5054827;28;20903;-55
2022/04/23 10:34:35;;;;;;;6.67;6.27;;;26.80;25.60;;;;;;5059081;28;20518;-57
2022/04/23 10:37:24;;;;;;;6.90;6.50;;;26.60;24.30;;;;;;5060351;28;20485;-56
2022/04/23 10:39:52;;;;;;;6.63;6.23;;;26.80;23.00;;;;;;5056016;28;20813;-56
2022/04/23 10:42:25;;;;;;;6.40;6.00;;;26.60;23.80;;;;;;5055356;28;20960;-57
2022/04/23 10:44:55;;;;;;;6.80;6.40;;;26.60;24.80;;;;;;5059390;28;20925;-53
2022/04/23 10:47:34;;;;;;;6.77;6.40;;;26.50;25.80;;;;;;5065314;28;20890;-57
2022/04/23 10:50:19;;;;;;;6.63;6.33;;;26.90;23.20;;;;;;5060562;28;20949;-55
2022/04/23 10:52:46;;;;;;;6.80;6.40;;;27.40;24.70;;;;;;5063359;28;20450;-53
2022/04/23 10:55:13;;;;;;;6.17;5.87;;;27.80;23.80;;;;;;5064417;28;20459;-56
2022/04/23 10:57:39;;;;;;;6.70;6.37;;;27.80;22.70;;;;;;5060080;28;20440;-57
2022/04/23 11:00:19;;;;;;;5.67;5.37;;;27.60;22.70;;;;;;5065573;28;20434;-57
2022/04/23 11:03:05;;;;;;;5.60;5.30;;;27.60;23.90;;;;;;5062913;28;20858;-57
2022/04/23 11:13:58;;;;;;;5.90;5.60;;;27.80;22.60;;;;;;5062381;28;20791;-56
2022/04/23 11:16:30;;;;;;;5.00;4.70;;;28.70;21.00;;;;;;5064625;28;20537;-57
2022/04/23 11:18:59;;;;;;;6.63;6.30;;;27.80;22.10;;;;;;5068026;28;20424;-58
2022/04/23 11:21:28;;;;;;;6.57;6.10;;;27.60;23.60;;;;;;5067016;28;20805;-57
2022/04/23 11:23:55;;;;;;;6.13;5.80;;;28.40;23.10;;;;;;5066999;28;20434;-57
2022/04/23 11:26:22;;;;;;;6.90;6.47;;;28.50;21.60;;;;;;5068565;28;20456;-58
2022/04/23 11:28:59;;;;;;;6.37;5.97;;;28.50;22.40;;;;;;5067133;28;20777;-58
2022/04/23 11:31:26;;;;;;;7.23;6.80;;;28.80;21.00;;;;;;5066777;28;20829;-57
2022/04/23 11:33:58;;;;;;;6.90;6.50;;;28.60;22.70;;;;;;5067079;28;20484;-58
2022/04/23 11:36:29;;;;;;;6.50;6.10;;;28.90;22.00;;;;;;5065091;28;20520;-58
2022/04/23 11:38:59;;;;;;;7.13;6.73;;;29.10;22.80;;;;;;5066043;28;20418;-57
2022/04/23 11:41:34;;;;;;;6.60;6.20;;;29.50;21.10;;;;;;5068196;28;20427;-58
2022/04/23 11:44:45;;;;;;;7.63;7.13;;;29.30;22.10;;;;;;5068008;28;20480;-54
2022/04/23 11:47:10;;;;;;;7.00;6.60;;;28.90;22.10;;;;;;5068911;28;21202;-56
2022/04/23 11:49:35;;;;;;;7.20;6.80;;;29.40;20.60;;;;;;5068590;28;20485;-55
2022/04/23 11:52:10;;;;;;;7.73;7.33;;;29.80;21.40;;;;;;5069340;28;21030;-57
2022/04/23 11:54:38;;;;;;;7.07;6.67;;;29.30;21.10;;;;;;5066931;28;21938;-54
2022/04/23 11:57:07;;;;;;;7.27;6.90;;;29.00;21.70;;;;;;5068412;28;20442;-56
2022/04/23 11:59:38;;;;;;;7.70;7.30;;;29.00;22.00;;;;;;5067633;28;20533;-51
2022/04/23 12:02:21;;;;;;;6.83;6.43;;;28.60;21.80;;;;;;5070182;28;20420;-53
2022/04/23 12:04:48;;;;;;;7.40;6.90;;;28.90;22.70;;;;;;5065553;28;20440;-52
2022/04/23 12:07:14;;;;;;;6.50;6.17;;;28.70;23.30;;;;;;5067019;28;20445;-55
2022/04/23 12:09:47;;;;;;;6.73;6.43;;;29.00;22.90;;;;;;5069067;28;20436;-54
2022/04/23 12:12:20;;;;;;;7.20;6.80;;;28.60;22.70;;;;;;5067640;28;20224;-55
2022/04/23 12:14:51;;;;;;;7.43;7.03;;;28.00;22.10;;;;;;5067725;28;20459;-54
2022/04/23 12:17:31;;;;;;;6.30;6.00;;;28.00;22.30;;;;;;5066326;28;20450;-53
2022/04/23 12:19:58;;;;;;;6.97;6.43;;;28.30;22.40;;;;;;5066406;28;20434;-56
2022/04/23 12:22:24;;;;;;;6.77;6.37;;;28.50;22.60;;;;;;5058177;28;20503;-56
2022/04/23 12:24:49;;;;;;;7.37;6.87;;;28.90;21.60;;;;;;5068899;28;20534;-56
2022/04/23 12:27:17;;;;;;;7.43;7.00;;;28.90;21.30;;;;;;5060731;28;21420;-54
2022/04/23 12:40:57;;;;;;;8.00;7.27;;;29.70;20.80;;;;;;5065485;28;20472;-54
2022/04/23 12:43:30;;;;;;;7.47;7.07;;;29.80;20.30;;;;;;5063488;28;20455;-54
2022/04/23 12:46:09;;;;;;;7.30;6.90;;;30.00;20.80;;;;;;5065923;28;20463;-54
2022/04/23 12:48:54;;;;;;;7.50;7.10;;;29.70;20.30;;;;;;5066706;28;21003;-51
2022/04/23 12:51:20;;;;;;;7.67;7.27;;;29.20;21.10;;;;;;5068413;28;20438;-50
2022/04/23 12:53:45;;;;;;;7.30;6.90;;;28.70;21.10;;;;;;5067141;28;20470;-48
2022/04/23 12:56:11;;;;;;;7.47;7.07;;;28.30;21.30;;;;;;5066406;28;20533;-50
2022/04/23 12:58:37;;;;;;;7.60;7.20;;;28.40;22.30;;;;;;5063244;28;20603;-52
2022/04/23 13:01:02;;;;;;;6.67;6.27;;;28.20;22.20;;;;;;5061527;28;20925;-50
2022/04/23 13:03:37;;;;;;;7.43;7.03;;;27.90;22.30;;;;;;5069241;28;20182;-52
2022/04/23 13:08:54;;;;;;;8.07;7.67;;;27.80;22.90;;;;;;5065822;28;20212;-54
2022/04/23 13:08:54;;;;;;;6.93;6.37;;;28.20;21.80;;;;;;5066704;28;20428;-53
2022/04/23 13:11:30;;;;;;;8.50;7.90;;;28.20;21.90;;;;;;5060845;28;20432;-53
2022/04/23 13:14:04;;;;;;;7.07;6.67;;;27.70;22.00;;;;;;5065873;28;20427;-58
2022/04/23 13:16:36;;;;;;;7.57;7.17;;;27.20;23.20;;;;;;5075545;28;20606;-55
2022/04/23 13:19:03;;;;;;;7.73;7.27;;;27.60;23.40;;;;;;5067811;28;20419;-53
2022/04/23 13:21:33;;;;;;;7.93;7.37;;;27.80;23.60;;;;;;5061658;28;20543;-55
2022/04/23 13:24:00;;;;;;;6.90;6.50;;;28.30;22.50;;;;;;5063485;28;20798;-56